Time;durP1;ratioP1;P1;durP2;ratioP2;P2;SDS_P1;SDS_P2;PMS_P1;PMS_P2;Temp;Humidity;BMP_temperature;BMP_pressure;BME280_temperature;BME280_humidity;BME280_pressure;Samples;Min_cycle;Max_cycle;Signal;HPM_P1;HPM_P2
2022/05/12 00:00:37;;;;;;;;;;;;;;;;;;5049408;28;1477;-76
2022/05/12 00:03:04;;;;;;;;;;;;;;;;;;5067478;28;1635;-76
2022/05/12 00:05:29;;;;;;;;;;;;;;;;;;5068440;28;1541;-75
2022/05/12 00:07:55;;;;;;;;;;;;;;;;;;5047821;28;1190;-76
2022/05/12 00:10:23;;;;;;;;;;;;;;;;;;5082992;28;1941;-76
2022/05/12 00:12:49;;;;;;;;;;;;;;;;;;5080476;28;1152;-76
2022/05/12 00:15:17;;;;;;;;;;;;;;;;;;5050932;28;1251;-76
2022/05/12 00:17:44;;;;;;;;;;;;;;;;;;5064566;28;1152;-76
2022/05/12 00:20:10;;;;;;;;;;;;;;;;;;5065670;28;1253;-75
2022/05/12 00:22:36;;;;;;;;;;;;;;;;;;5065246;28;1203;-76
2022/05/12 00:25:02;;;;;;;;;;;;;;;;;;5048582;28;1249;-76
2022/05/12 00:27:27;;;;;;;;;;;;;;;;;;5064202;28;1219;-76
2022/05/12 00:29:52;;;;;;;;;;;;;;;;;;5064102;28;1897;-76
2022/05/12 00:32:17;;;;;;;;;;;;;;;;;;5049796;28;1216;-76
2022/05/12 00:34:42;;;;;;;;;;;;;;;;;;5068597;28;1356;-76
2022/05/12 00:37:08;;;;;;;;;;;;;;;;;;5105651;28;750;-76
2022/05/12 00:39:37;;;;;;;;;;;;;;;;;;5103577;28;735;-76
2022/05/12 00:42:03;;;;;;;;;;;;;;;;;;5100880;28;1249;-76
2022/05/12 00:44:28;;;;;;;;;;;;;;;;;;5086709;28;1173;-76
2022/05/12 00:46:53;;;;;;;;;;;;;;;;;;5102493;28;1252;-75
2022/05/12 00:49:44;;;;;;;;;;;;;;;;;;5101432;28;1914;-75
2022/05/12 00:52:20;;;;;;;;;;;;;;;;;;5103803;28;1365;-76
2022/05/12 00:54:49;;;;;;;;;;;;;;;;;;5099756;28;1188;-77
2022/05/12 00:57:24;;;;;;;;;;;;;;;;;;5094484;28;1322;-76
2022/05/12 00:59:50;;;;;;;;;;;;;;;;;;5096169;28;1198;-76
2022/05/12 01:02:18;;;;;;;;;;;;;;;;;;5087403;28;1210;-76
2022/05/12 01:04:44;;;;;;;;;;;;;;;;;;5102437;28;1301;-76
2022/05/12 01:07:09;;;;;;;;;;;;;;;;;;5098417;28;1280;-76
2022/05/12 01:09:35;;;;;;;;;;;;;;;;;;5082195;28;1889;-76
2022/05/12 01:12:01;;;;;;;;;;;;;;;;;;5063344;28;1213;-77
2022/05/12 01:14:26;;;;;;;;;;;;;;;;;;5086074;28;964;-76
2022/05/12 01:16:53;;;;;;;;;;;;;;;;;;5082837;28;985;-76
2022/05/12 01:19:20;;;;;;;;;;;;;;;;;;5085488;28;903;-77
2022/05/12 01:21:47;;;;;;;;;;;;;;;;;;5083696;28;767;-75
2022/05/12 01:24:12;;;;;;;;;;;;;;;;;;5082215;28;1183;-77
2022/05/12 01:26:39;;;;;;;;;;;;;;;;;;5080137;28;1191;-76
2022/05/12 01:29:05;;;;;;;;;;;;;;;;;;5088211;28;1916;-75
2022/05/12 01:31:31;;;;;;;;;;;;;;;;;;5106233;28;841;-75
2022/05/12 01:33:56;;;;;;;;;;;;;;;;;;5103508;28;1292;-76
2022/05/12 01:36:22;;;;;;;;;;;;;;;;;;5105429;28;1142;-76
2022/05/12 01:38:48;;;;;;;;;;;;;;;;;;5101716;28;1338;-76
2022/05/12 01:41:14;;;;;;;;;;;;;;;;;;5092982;28;1369;-76
2022/05/12 01:43:43;;;;;;;;;;;;;;;;;;5069402;28;1143;-75
2022/05/12 01:46:08;;;;;;;;;;;;;;;;;;5084307;28;981;-76
2022/05/12 01:48:33;;;;;;;;;;;;;;;;;;5084445;28;1170;-76
2022/05/12 01:50:59;;;;;;;;;;;;;;;;;;5083555;28;1910;-75
2022/05/12 01:53:24;;;;;;;;;;;;;;;;;;5069880;28;1258;-75
2022/05/12 01:55:49;;;;;;;;;;;;;;;;;;5082691;28;874;-76
2022/05/12 01:58:16;;;;;;;;;;;;;;;;;;5082511;28;1330;-77
2022/05/12 02:00:52;;;;;;;;;;;;;;;;;;;;;
2022/05/12 02:03:18;;;;;;;;;;;;;;;;;;5105077;28;616;-76
2022/05/12 02:05:45;;;;;;;;;;;;;;;;;;5105161;28;1233;-76
2022/05/12 02:08:11;;;;;;;;;;;;;;;;;;5100574;28;996;-76
2022/05/12 02:10:47;;;;;;;;;;;;;;;;;;5104196;28;1897;-76
2022/05/12 02:13:13;;;;;;;;;;;;;;;;;;5103690;28;1181;-76
2022/05/12 02:15:39;;;;;;;;;;;;;;;;;;5107221;28;934;-76
2022/05/12 02:18:05;;;;;;;;;;;;;;;;;;5103905;28;885;-76
2022/05/12 02:20:30;;;;;;;;;;;;;;;;;;5108045;28;1035;-75
2022/05/12 02:22:55;;;;;;;;;;;;;;;;;;5104469;28;1114;-75
2022/05/12 02:25:21;;;;;;;;;;;;;;;;;;5108122;28;715;-76
2022/05/12 02:27:50;;;;;;;;;;;;;;;;;;5101438;28;1312;-76
2022/05/12 02:30:23;;;;;;;;;;;;;;;;;;5107833;28;1933;-76
2022/05/12 02:32:52;;;;;;;;;;;;;;;;;;5105445;28;1162;-76
2022/05/12 02:35:17;;;;;;;;;;;;;;;;;;5089781;28;1238;-76
2022/05/12 02:37:43;;;;;;;;;;;;;;;;;;5053694;28;1362;-77
2022/05/12 02:40:10;;;;;;;;;;;;;;;;;;5066681;28;1314;-77
2022/05/12 02:42:35;;;;;;;;;;;;;;;;;;5084885;28;1190;-76
2022/05/12 02:45:00;;;;;;;;;;;;;;;;;;5068588;28;1279;-76
2022/05/12 02:47:26;;;;;;;;;;;;;;;;;;5087391;28;1274;-75
2022/05/12 02:49:54;;;;;;;;;;;;;;;;;;5086681;28;1909;-77
2022/05/12 02:52:19;;;;;;;;;;;;;;;;;;5087793;28;1171;-75
2022/05/12 02:54:44;;;;;;;;;;;;;;;;;;5085768;28;1203;-74
2022/05/12 02:57:10;;;;;;;;;;;;;;;;;;5064590;28;1171;-75
2022/05/12 02:59:37;;;;;;;;;;;;;;;;;;5070485;28;1209;-76
2022/05/12 03:02:02;;;;;;;;;;;;;;;;;;5069420;28;1167;-76
2022/05/12 03:04:28;;;;;;;;;;;;;;;;;;5070745;28;1207;-75
2022/05/12 03:06:53;;;;;;;;;;;;;;;;;;5068025;28;1293;-75
2022/05/12 03:09:18;;;;;;;;;;;;;;;;;;5052017;28;1890;-75
2022/05/12 03:11:44;;;;;;;;;;;;;;;;;;5085838;28;818;-75
2022/05/12 03:14:09;;;;;;;;;;;;;;;;;;5070859;28;898;-75
2022/05/12 03:16:34;;;;;;;;;;;;;;;;;;5053033;28;1401;-76
2022/05/12 03:19:00;;;;;;;;;;;;;;;;;;5068983;28;1174;-75
2022/05/12 03:21:26;;;;;;;;;;;;;;;;;;5070343;28;1342;-76
2022/05/12 03:23:54;;;;;;;;;;;;;;;;;;5068623;28;854;-76
2022/05/12 03:26:21;;;;;;;;;;;;;;;;;;5066828;28;1009;-75
2022/05/12 03:28:46;;;;;;;;;;;;;;;;;;5088943;28;861;-76
2022/05/12 03:31:12;;;;;;;;;;;;;;;;;;5053544;28;1898;-76
2022/05/12 03:33:38;;;;;;;;;;;;;;;;;;5070645;28;1331;-76
2022/05/12 03:36:04;;;;;;;;;;;;;;;;;;5086030;28;1143;-75
2022/05/12 03:38:29;;;;;;;;;;;;;;;;;;5050614;28;1231;-76
2022/05/12 03:40:55;;;;;;;;;;;;;;;;;;5066597;28;1180;-75
2022/05/12 03:46:06;;;;;;;;;;;;;;;;;;5086197;28;631;-75
2022/05/12 03:48:31;;;;;;;;;;;;;;;;;;5088454;28;783;-76
2022/05/12 03:50:58;;;;;;;;;;;;;;;;;;5086767;28;1910;-75
2022/05/12 03:53:26;;;;;;;;;;;;;;;;;;5068278;28;1317;-76
2022/05/12 03:55:52;;;;;;;;;;;;;;;;;;5084562;28;866;-75
2022/05/12 03:58:18;;;;;;;;;;;;;;;;;;5049852;28;1109;-74
2022/05/12 04:00:43;;;;;;;;;;;;;;;;;;5069184;28;1286;-76
2022/05/12 04:03:08;;;;;;;;;;;;;;;;;;5066104;28;1473;-76
2022/05/12 04:05:34;;;;;;;;;;;;;;;;;;5068491;28;1399;-75
2022/05/12 04:08:00;;;;;;;;;;;;;;;;;;5067409;28;1388;-74
2022/05/12 04:10:26;;;;;;;;;;;;;;;;;;5066795;28;1940;-76
2022/05/12 04:12:52;;;;;;;;;;;;;;;;;;5081617;28;1017;-76
2022/05/12 04:15:17;;;;;;;;;;;;;;;;;;5067116;28;1342;-75
2022/05/12 04:17:44;;;;;;;;;;;;;;;;;;5051256;28;1365;-74
2022/05/12 04:20:13;;;;;;;;;;;;;;;;;;5083984;28;1183;-75
2022/05/12 04:22:40;;;;;;;;;;;;;;;;;;5051638;28;1355;-76
2022/05/12 04:25:05;;;;;;;;;;;;;;;;;;5083436;28;1147;-75
2022/05/12 04:27:33;;;;;;;;;;;;;;;;;;5062585;28;1132;-76
2022/05/12 04:29:59;;;;;;;;;;;;;;;;;;5084636;28;1928;-74
2022/05/12 04:32:25;;;;;;;;;;;;;;;;;;5085915;28;1219;-74
2022/05/12 04:37:47;;;;;;;;;;;;;;;;;;5091255;28;1442;-76
2022/05/12 04:40:17;;;;;;;;;;;;;;;;;;5090318;28;1059;-73
2022/05/12 04:42:43;;;;;;;;;;;;;;;;;;5093402;28;1329;-75
2022/05/12 04:45:09;;;;;;;;;;;;;;;;;;5068245;28;1333;-75
2022/05/12 04:47:35;;;;;;;;;;;;;;;;;;5084305;28;1485;-75
2022/05/12 04:50:01;;;;;;;;;;;;;;;;;;5086953;28;1938;-74
2022/05/12 04:52:26;;;;;;;;;;;;;;;;;;5102639;28;1269;-74
2022/05/12 04:54:54;;;;;;;;;;;;;;;;;;5103031;28;1219;-74
2022/05/12 04:57:19;;;;;;;;;;;;;;;;;;5099293;28;1204;-75
2022/05/12 04:59:44;;;;;;;;;;;;;;;;;;5105924;28;774;-75
2022/05/12 05:02:09;;;;;;;;;;;;;;;;;;5104286;28;1171;-74
2022/05/12 05:04:35;;;;;;;;;;;;;;;;;;5105403;28;901;-74
2022/05/12 05:07:00;;;;;;;;;;;;;;;;;;5104835;28;1001;-75
2022/05/12 05:09:26;;;;;;;;;;;;;;;;;;5103283;28;1915;-76
2022/05/12 05:11:51;;;;;;;;;;;;;;;;;;5102078;28;1245;-75
2022/05/12 05:14:16;;;;;;;;;;;;;;;;;;5104888;28;1379;-76
2022/05/12 05:16:42;;;;;;;;;;;;;;;;;;5105831;28;1217;-75
2022/05/12 05:19:07;;;;;;;;;;;;;;;;;;5106206;28;1023;-76
2022/05/12 05:21:32;;;;;;;;;;;;;;;;;;5087583;28;1321;-75
2022/05/12 05:23:57;;;;;;;;;;;;;;;;;;5087124;28;1184;-75
2022/05/12 05:26:23;;;;;;;;;;;;;;;;;;5094292;28;1230;-74
2022/05/12 05:28:48;;;;;;;;;;;;;;;;;;5083403;28;1418;-74
2022/05/12 05:31:14;;;;;;;;;;;;;;;;;;5094881;28;1986;-75
2022/05/12 05:33:40;;;;;;;;;;;;;;;;;;5096526;28;1175;-75
2022/05/12 05:36:07;;;;;;;;;;;;;;;;;;5080710;28;1322;-75
2022/05/12 05:38:33;;;;;;;;;;;;;;;;;;5085156;28;1239;-74
2022/05/12 05:40:59;;;;;;;;;;;;;;;;;;5064637;28;1247;-74
2022/05/12 05:43:26;;;;;;;;;;;;;;;;;;5049279;28;1492;-76
2022/05/12 05:45:51;;;;;;;;;;;;;;;;;;5050631;28;1222;-76
2022/05/12 05:48:17;;;;;;;;;;;;;;;;;;5065618;28;1210;-77
2022/05/12 05:53:28;;;;;;;;;;;;;;;;;;5083169;28;996;-75
2022/05/12 05:55:54;;;;;;;;;;;;;;;;;;5064310;28;1408;-76
2022/05/12 05:58:20;;;;;;;;;;;;;;;;;;5066226;28;1238;-75
2022/05/12 06:00:46;;;;;;;;;;;;;;;;;;5070784;28;1446;-75
2022/05/12 06:03:11;;;;;;;;;;;;;;;;;;5068420;28;1237;-75
2022/05/12 06:05:37;;;;;;;;;;;;;;;;;;5069993;28;1314;-74
2022/05/12 06:08:04;;;;;;;;;;;;;;;;;;5068988;28;1167;-74
2022/05/12 06:10:29;;;;;;;;;;;;;;;;;;5052734;28;1926;-76
2022/05/12 06:12:55;;;;;;;;;;;;;;;;;;5085163;28;1100;-75
2022/05/12 06:15:21;;;;;;;;;;;;;;;;;;5066913;28;1303;-75
2022/05/12 06:17:46;;;;;;;;;;;;;;;;;;5069162;28;1221;-73
2022/05/12 06:20:12;;;;;;;;;;;;;;;;;;5049085;28;1743;-74
2022/05/12 06:22:37;;;;;;;;;;;;;;;;;;5068990;28;1292;-74
2022/05/12 06:25:05;;;;;;;;;;;;;;;;;;5052696;28;1207;-73
2022/05/12 06:27:32;;;;;;;;;;;;;;;;;;5063975;28;1161;-74
2022/05/12 06:30:11;;;;;;;;;;;;;;;;;;5086307;28;1929;-74
2022/05/12 06:32:37;;;;;;;;;;;;;;;;;;5051936;28;1200;-74
2022/05/12 06:35:02;;;;;;;;;;;;;;;;;;5056380;28;1171;-73
2022/05/12 06:37:27;;;;;;;;;;;;;;;;;;5104871;28;1268;-74
2022/05/12 06:39:53;;;;;;;;;;;;;;;;;;5105912;28;760;-74
2022/05/12 06:42:18;;;;;;;;;;;;;;;;;;5111272;28;1415;-74
2022/05/12 06:44:44;;;;;;;;;;;;;;;;;;5090976;28;1096;-74
2022/05/12 06:47:14;;;;;;;;;;;;;;;;;;5106146;28;1214;-75
2022/05/12 06:49:40;;;;;;;;;;;;;;;;;;5107223;28;1963;-74
2022/05/12 06:52:06;;;;;;;;;;;;;;;;;;5108672;28;1584;-76
2022/05/12 06:54:32;;;;;;;;;;;;;;;;;;5104676;28;1165;-75
2022/05/12 06:56:58;;;;;;;;;;;;;;;;;;5106587;27;853;-75
2022/05/12 06:59:23;;;;;;;;;;;;;;;;;;5088314;28;1194;-75
2022/05/12 07:01:48;;;;;;;;;;;;;;;;;;5107671;28;924;-74
2022/05/12 07:04:14;;;;;;;;;;;;;;;;;;5089046;28;1302;-74
2022/05/12 07:06:39;;;;;;;;;;;;;;;;;;5086588;28;1211;-75
2022/05/12 07:09:04;;;;;;;;;;;;;;;;;;5094453;28;1286;-76
2022/05/12 07:11:31;;;;;;;;;;;;;;;;;;5101798;28;1901;-81
2022/05/12 07:13:56;;;;;;;;;;;;;;;;;;5094440;28;1177;-76
2022/05/12 07:16:21;;;;;;;;;;;;;;;;;;5082938;28;1377;-77
2022/05/12 07:18:47;;;;;;;;;;;;;;;;;;5097353;28;1301;-77
2022/05/12 07:26:41;;;;;;;;;;;;;;;;;;5082327;28;982;-74
2022/05/12 07:29:09;;;;;;;;;;;;;;;;;;5086947;28;1894;-75
2022/05/12 07:31:35;;;;;;;;;;;;;;;;;;5082680;28;1130;-75
2022/05/12 07:34:00;;;;;;;;;;;;;;;;;;5085431;28;1217;-74
2022/05/12 07:36:36;;;;;;;;;;;;;;;;;;5065439;28;1289;-73
2022/05/12 07:39:02;;;;;;;;;;;;;;;;;;5082747;28;1264;-75
2022/05/12 07:41:28;;;;;;;;;;;;;;;;;;5078771;28;1206;-75
2022/05/12 07:43:54;;;;;;;;;;;;;;;;;;5086077;28;830;-75
2022/05/12 07:46:23;;;;;;;;;;;;;;;;;;5082539;28;1289;-75
2022/05/12 07:48:50;;;;;;;;;;;;;;;;;;5084506;28;1509;-75
2022/05/12 07:51:19;;;;;;;;;;;;;;;;;;5100303;28;1947;-75
2022/05/12 07:53:47;;;;;;;;;;;;;;;;;;5090421;28;1238;-74
2022/05/12 07:56:13;;;;;;;;;;;;;;;;;;5084000;28;881;-74
2022/05/12 07:58:38;;;;;;;;;;;;;;;;;;5083103;28;1109;-75
2022/05/12 08:01:04;;;;;;;;;;;;;;;;;;5084253;28;944;-76
2022/05/12 08:03:29;;;;;;;;;;;;;;;;;;5066278;28;1207;-76
2022/05/12 08:05:55;;;;;;;;;;;;;;;;;;5069635;28;1219;-76
2022/05/12 08:08:21;;;;;;;;;;;;;;;;;;5063851;28;1187;-75
2022/05/12 08:10:46;;;;;;;;;;;;;;;;;;5084754;28;2279;-75
2022/05/12 08:13:16;;;;;;;;;;;;;;;;;;5084838;28;795;-75
2022/05/12 08:15:42;;;;;;;;;;;;;;;;;;5083264;28;1263;-76
2022/05/12 08:18:08;;;;;;;;;;;;;;;;;;5083919;28;996;-77
2022/05/12 08:20:35;;;;;;;;;;;;;;;;;;5082054;28;1277;-76
2022/05/12 08:23:10;;;;;;;;;;;;;;;;;;5083034;28;1277;-75
2022/05/12 08:25:42;;;;;;;;;;;;;;;;;;5100856;28;1177;-75
2022/05/12 08:28:07;;;;;;;;;;;;;;;;;;5087807;28;1399;-75
2022/05/12 08:30:33;;;;;;;;;;;;;;;;;;5083896;28;1885;-75
2022/05/12 08:32:59;;;;;;;;;;;;;;;;;;5068004;28;1306;-75
2022/05/12 08:35:25;;;;;;;;;;;;;;;;;;5081258;28;1278;-74
2022/05/12 08:37:50;;;;;;;;;;;;;;;;;;5104573;28;1035;-79
2022/05/12 08:40:33;;;;;;;;;;;;;;;;;;5087126;28;1174;-75
2022/05/12 08:43:07;;;;;;;;;;;;;;;;;;5101686;28;1276;-75
2022/05/12 08:45:34;;;;;;;;;;;;;;;;;;5104042;28;1187;-81
2022/05/12 08:48:02;;;;;;;;;;;;;;;;;;5089621;28;1276;-76
2022/05/12 08:50:29;;;;;;;;;;;;;;;;;;5067000;28;1930;-78
2022/05/12 08:53:03;;;;;;;;;;;;;;;;;;5086306;28;787;-77
2022/05/12 08:55:28;;;;;;;;;;;;;;;;;;5083517;28;1164;-78
2022/05/12 08:57:58;;;;;;;;;;;;;;;;;;5081502;28;1234;-77
2022/05/12 09:00:24;;;;;;;;;;;;;;;;;;5084762;28;1190;-79
2022/05/12 09:03:02;;;;;;;;;;;;;;;;;;5084432;28;1187;-82
2022/05/12 09:05:30;;;;;;;;;;;;;;;;;;5083497;28;1184;-78
2022/05/12 09:08:25;;;;;;;;;;;;;;;;;;5082745;28;1261;-79
2022/05/12 09:11:08;;;;;;;;;;;;;;;;;;5082148;28;1898;-80
2022/05/12 09:13:39;;;;;;;;;;;;;;;;;;5083141;28;1208;-78
2022/05/12 09:16:08;;;;;;;;;;;;;;;;;;5092264;28;1152;-78
2022/05/12 09:18:34;;;;;;;;;;;;;;;;;;5102401;28;1226;-76
2022/05/12 09:21:05;;;;;;;;;;;;;;;;;;5088702;28;1233;-81
2022/05/12 09:23:30;;;;;;;;;;;;;;;;;;5089459;28;1348;-79
2022/05/12 09:25:57;;;;;;;;;;;;;;;;;;5096574;28;1234;-84
2022/05/12 09:28:34;;;;;;;;;;;;;;;;;;5071951;28;1247;-81
2022/05/12 09:31:01;;;;;;;;;;;;;;;;;;5093919;28;1881;-84
2022/05/12 09:33:31;;;;;;;;;;;;;;;;;;5098863;28;1332;-86
2022/05/12 09:35:59;;;;;;;;;;;;;;;;;;5098925;28;1279;-80
2022/05/12 09:38:28;;;;;;;;;;;;;;;;;;5102663;28;1319;-83
2022/05/12 09:40:54;;;;;;;;;;;;;;;;;;5089902;28;1170;-81
2022/05/12 09:43:31;;;;;;;;;;;;;;;;;;5101572;27;1147;-83
2022/05/12 09:46:07;;;;;;;;;;;;;;;;;;5090043;28;1311;-79
2022/05/12 09:48:34;;;;;;;;;;;;;;;;;;5090743;28;1265;-79
2022/05/12 09:51:11;;;;;;;;;;;;;;;;;;5095215;28;1929;-80
2022/05/12 09:53:37;;;;;;;;;;;;;;;;;;5092022;28;881;-85
2022/05/12 09:56:08;;;;;;;;;;;;;;;;;;5096713;28;1184;-85
2022/05/12 09:58:35;;;;;;;;;;;;;;;;;;5094534;28;1109;-82
2022/05/12 10:01:13;;;;;;;;;;;;;;;;;;5092530;28;1135;-85
2022/05/12 10:09:18;;;;;;;;;;;;;;;;;;5097841;28;1032;-86
2022/05/12 10:12:02;;;;;;;;;;;;;;;;;;5099412;28;1189;-84
2022/05/12 10:14:38;;;;;;;;;;;;;;;;;;5101018;28;1331;-84
2022/05/12 10:17:08;;;;;;;;;;;;;;;;;;5095038;28;1233;-85
2022/05/12 10:19:35;;;;;;;;;;;;;;;;;;5104711;28;1162;-77
2022/05/12 10:22:12;;;;;;;;;;;;;;;;;;5111129;28;1365;-77
2022/05/12 10:24:53;;;;;;;;;;;;;;;;;;5106330;28;1106;-78
2022/05/12 10:27:36;;;;;;;;;;;;;;;;;;5110549;27;904;-77
2022/05/12 10:30:10;;;;;;;;;;;;;;;;;;5111280;27;1955;-77
2022/05/12 10:32:44;;;;;;;;;;;;;;;;;;5109169;28;1154;-77
2022/05/12 10:35:19;;;;;;;;;;;;;;;;;;5111029;28;1190;-77
2022/05/12 10:37:53;;;;;;;;;;;;;;;;;;5110912;27;838;-83
2022/05/12 10:40:26;;;;;;;;;;;;;;;;;;5110101;28;1312;-85
2022/05/12 10:42:56;;;;;;;;;;;;;;;;;;5105931;28;1210;-84
2022/05/12 10:45:34;;;;;;;;;;;;;;;;;;5108348;28;1211;-83
2022/05/12 10:48:32;;;;;;;;;;;;;;;;;;5100677;28;1161;-83
2022/05/12 10:50:58;;;;;;;;;;;;;;;;;;5094402;28;1910;-83
2022/05/12 10:53:33;;;;;;;;;;;;;;;;;;5104364;28;1253;-84
2022/05/12 10:56:18;;;;;;;;;;;;;;;;;;5088914;28;1329;-83
2022/05/12 10:58:48;;;;;;;;;;;;;;;;;;5094502;28;1425;-83
2022/05/12 11:01:16;;;;;;;;;;;;;;;;;;5096577;28;1313;-84
2022/05/12 11:03:57;;;;;;;;;;;;;;;;;;5090734;28;1127;-83
2022/05/12 11:06:29;;;;;;;;;;;;;;;;;;5088507;28;1273;-85
2022/05/12 11:08:59;;;;;;;;;;;;;;;;;;5102987;28;1136;-86
2022/05/12 11:11:27;;;;;;;;;;;;;;;;;;5104684;28;1894;-84
2022/05/12 11:13:59;;;;;;;;;;;;;;;;;;5089297;28;1395;-84
2022/05/12 11:16:30;;;;;;;;;;;;;;;;;;5110132;28;1386;-85
2022/05/12 11:18:58;;;;;;;;;;;;;;;;;;5100783;28;1270;-81
2022/05/12 11:21:25;;;;;;;;;;;;;;;;;;5092423;28;906;-81
2022/05/12 11:23:53;;;;;;;;;;;;;;;;;;5087380;28;1309;-81
2022/05/12 11:26:38;;;;;;;;;;;;;;;;;;5099405;28;1266;-78
2022/05/12 11:32:26;;;;;;;;;;;;;;;;;;5112679;28;1022;-76
2022/05/12 11:34:54;;;;;;;;;;;;;;;;;;5107914;28;1245;-79
2022/05/12 11:37:25;;;;;;;;;;;;;;;;;;5098594;28;1476;-82
2022/05/12 11:39:54;;;;;;;;;;;;;;;;;;5089944;28;1105;-83
2022/05/12 11:45:38;;;;;;;;;;;;;;;;;;5086809;28;1234;-85
2022/05/12 11:48:07;;;;;;;;;;;;;;;;;;5103382;28;1339;-85
2022/05/12 11:50:36;;;;;;;;;;;;;;;;;;5098168;28;1914;-83
2022/05/12 11:53:10;;;;;;;;;;;;;;;;;;5104557;28;1306;-83
2022/05/12 11:55:54;;;;;;;;;;;;;;;;;;5087992;28;1266;-82
2022/05/12 11:58:28;;;;;;;;;;;;;;;;;;5104053;28;1041;-81
2022/05/12 12:00:56;;;;;;;;;;;;;;;;;;5111220;27;1207;-77
2022/05/12 12:03:22;;;;;;;;;;;;;;;;;;5112189;28;1268;-84
2022/05/12 12:05:47;;;;;;;;;;;;;;;;;;5101887;28;1218;-84
2022/05/12 12:08:32;;;;;;;;;;;;;;;;;;5094221;28;1210;-85
2022/05/12 12:11:13;;;;;;;;;;;;;;;;;;5089606;28;1894;-77
2022/05/12 12:13:43;;;;;;;;;;;;;;;;;;5091622;28;1060;-77
2022/05/12 12:16:11;;;;;;;;;;;;;;;;;;5095298;28;1136;-79
2022/05/12 12:18:36;;;;;;;;;;;;;;;;;;5104958;28;1293;-83
2022/05/12 12:21:22;;;;;;;;;;;;;;;;;;5096572;28;1187;-79
2022/05/12 12:24:06;;;;;;;;;;;;;;;;;;5109675;28;1383;-80
2022/05/12 12:26:36;;;;;;;;;;;;;;;;;;5103441;28;1339;-80
2022/05/12 12:29:13;;;;;;;;;;;;;;;;;;5110380;28;1173;-78
2022/05/12 12:31:43;;;;;;;;;;;;;;;;;;5110519;28;1957;-79
2022/05/12 12:34:09;;;;;;;;;;;;;;;;;;5099670;28;1093;-79
2022/05/12 12:36:34;;;;;;;;;;;;;;;;;;5106346;28;1223;-81
2022/05/12 12:38:59;;;;;;;;;;;;;;;;;;5090133;28;1315;-82
2022/05/12 12:41:30;;;;;;;;;;;;;;;;;;5107417;28;1188;-81
2022/05/12 12:43:59;;;;;;;;;;;;;;;;;;5101830;28;1211;-85
2022/05/12 12:46:33;;;;;;;;;;;;;;;;;;5101268;28;1206;-78
2022/05/12 12:49:08;;;;;;;;;;;;;;;;;;5086395;28;1207;-78
2022/05/12 12:51:34;;;;;;;;;;;;;;;;;;5096938;28;1961;-85
2022/05/12 12:56:48;;;;;;;;;;;;;;;;;;5100997;28;1067;-81
2022/05/12 12:59:13;;;;;;;;;;;;;;;;;;5088285;28;1270;-79
2022/05/12 13:01:55;;;;;;;;;;;;;;;;;;5100938;27;1151;-85
2022/05/12 13:04:25;;;;;;;;;;;;;;;;;;5096916;28;1191;-80
2022/05/12 13:06:53;;;;;;;;;;;;;;;;;;5102272;28;1380;-78
2022/05/12 13:09:23;;;;;;;;;;;;;;;;;;5101261;28;1477;-82
2022/05/12 13:11:49;;;;;;;;;;;;;;;;;;5100425;28;1312;-83
2022/05/12 13:14:15;;;;;;;;;;;;;;;;;;5078950;28;1270;-81
2022/05/12 13:16:42;;;;;;;;;;;;;;;;;;5102674;28;1223;-82
2022/05/12 13:19:09;;;;;;;;;;;;;;;;;;5092548;28;1151;-82
2022/05/12 13:21:41;;;;;;;;;;;;;;;;;;5106985;28;1084;-83
2022/05/12 13:24:15;;;;;;;;;;;;;;;;;;5085250;28;1316;-83
2022/05/12 13:26:48;;;;;;;;;;;;;;;;;;5083918;28;1462;-81
2022/05/12 13:29:21;;;;;;;;;;;;;;;;;;5085740;28;1127;-78
2022/05/12 13:31:53;;;;;;;;;;;;;;;;;;5093871;28;1878;-78
2022/05/12 13:34:20;;;;;;;;;;;;;;;;;;5106620;28;1404;-78
2022/05/12 13:36:54;;;;;;;;;;;;;;;;;;5105732;28;1288;-78
2022/05/12 13:39:38;;;;;;;;;;;;;;;;;;5102920;28;1189;-78
2022/05/12 13:42:04;;;;;;;;;;;;;;;;;;5106854;28;1321;-83
2022/05/12 13:44:36;;;;;;;;;;;;;;;;;;5105055;28;1201;-78
2022/05/12 13:47:03;;;;;;;;;;;;;;;;;;5086920;28;1585;-79
2022/05/12 13:49:31;;;;;;;;;;;;;;;;;;5097205;28;1913;-79
2022/05/12 13:52:13;;;;;;;;;;;;;;;;;;5103115;28;1202;-78
2022/05/12 13:54:39;;;;;;;;;;;;;;;;;;5098867;28;1108;-76
2022/05/12 13:57:13;;;;;;;;;;;;;;;;;;5078901;28;1170;-78
2022/05/12 13:59:50;;;;;;;;;;;;;;;;;;5084894;28;1191;-81
2022/05/12 14:02:18;;;;;;;;;;;;;;;;;;5088096;28;1223;-81
2022/05/12 14:04:43;;;;;;;;;;;;;;;;;;5085243;28;1186;-81
2022/05/12 14:07:09;;;;;;;;;;;;;;;;;;5078751;28;1107;-83
2022/05/12 14:09:35;;;;;;;;;;;;;;;;;;5097362;28;1943;-85
2022/05/12 14:12:09;;;;;;;;;;;;;;;;;;5079400;28;1400;-83
2022/05/12 14:20:09;;;;;;;;;;;;;;;;;;5096219;28;1089;-76
2022/05/12 14:22:35;;;;;;;;;;;;;;;;;;5092891;28;1187;-82
2022/05/12 14:25:00;;;;;;;;;;;;;;;;;;5080969;28;1324;-79
2022/05/12 14:27:25;;;;;;;;;;;;;;;;;;5082347;28;1133;-84
2022/05/12 14:29:51;;;;;;;;;;;;;;;;;;5087893;28;1952;-79
2022/05/12 14:32:17;;;;;;;;;;;;;;;;;;5096698;28;1163;-80
2022/05/12 14:34:44;;;;;;;;;;;;;;;;;;5101951;28;1142;-81
2022/05/12 14:37:09;;;;;;;;;;;;;;;;;;5090217;28;1297;-78
2022/05/12 14:39:34;;;;;;;;;;;;;;;;;;5083418;28;1270;-79
2022/05/12 14:42:01;;;;;;;;;;;;;;;;;;5098344;28;1185;-80
2022/05/12 14:44:27;;;;;;;;;;;;;;;;;;5099339;28;1103;-79
2022/05/12 14:47:03;;;;;;;;;;;;;;;;;;5083475;28;1245;-79
2022/05/12 14:49:30;;;;;;;;;;;;;;;;;;5101940;28;1907;-81
2022/05/12 14:51:59;;;;;;;;;;;;;;;;;;5089125;28;1285;-81
2022/05/12 14:54:25;;;;;;;;;;;;;;;;;;5086372;28;1183;-79
2022/05/12 14:56:50;;;;;;;;;;;;;;;;;;5100985;28;1281;-74
2022/05/12 14:59:16;;;;;;;;;;;;;;;;;;5095179;28;1306;-73
2022/05/12 15:01:42;;;;;;;;;;;;;;;;;;5096199;28;1116;-75
2022/05/12 15:04:07;;;;;;;;;;;;;;;;;;5104349;28;1201;-75
2022/05/12 15:06:33;;;;;;;;;;;;;;;;;;5106306;28;1253;-75
2022/05/12 15:08:59;;;;;;;;;;;;;;;;;;5101972;28;889;-76
2022/05/12 15:11:24;;;;;;;;;;;;;;;;;;5100487;28;1950;-75
2022/05/12 15:13:50;;;;;;;;;;;;;;;;;;5105682;28;763;-74
2022/05/12 15:16:17;;;;;;;;;;;;;;;;;;5085773;28;1067;-74
2022/05/12 15:18:42;;;;;;;;;;;;;;;;;;5105325;28;1182;-75
2022/05/12 15:21:07;;;;;;;;;;;;;;;;;;5104102;28;976;-74
2022/05/12 15:23:33;;;;;;;;;;;;;;;;;;5103812;28;818;-74
2022/05/12 15:25:59;;;;;;;;;;;;;;;;;;5101799;28;890;-74
2022/05/12 15:28:27;;;;;;;;;;;;;;;;;;5085095;28;1161;-76
2022/05/12 15:30:53;;;;;;;;;;;;;;;;;;5086819;28;1894;-75
2022/05/12 15:33:19;;;;;;;;;;;;;;;;;;5082977;28;1273;-74
2022/05/12 15:35:44;;;;;;;;;;;;;;;;;;5085066;28;1291;-75
2022/05/12 15:38:12;;;;;;;;;;;;;;;;;;5080430;28;1316;-75
2022/05/12 15:40:43;;;;;;;;;;;;;;;;;;5084731;28;890;-76
2022/05/12 15:43:09;;;;;;;;;;;;;;;;;;5082658;28;775;-74
2022/05/12 15:45:34;;;;;;;;;;;;;;;;;;5094890;28;1246;-76
2022/05/12 15:48:10;;;;;;;;;;;;;;;;;;5101850;28;1311;-76
2022/05/12 15:50:36;;;;;;;;;;;;;;;;;;5095374;28;1906;-77
2022/05/12 15:53:15;;;;;;;;;;;;;;;;;;5084374;28;1337;-76
2022/05/12 15:55:44;;;;;;;;;;;;;;;;;;5064631;28;1243;-75
2022/05/12 15:58:10;;;;;;;;;;;;;;;;;;5080439;28;1207;-74
2022/05/12 16:00:40;;;;;;;;;;;;;;;;;;5065687;28;1258;-75
2022/05/12 16:03:06;;;;;;;;;;;;;;;;;;5079088;28;1423;-73
2022/05/12 16:05:35;;;;;;;;;;;;;;;;;;5082721;28;1284;-75
2022/05/12 16:08:01;;;;;;;;;;;;;;;;;;5099312;28;1179;-74
2022/05/12 16:10:27;;;;;;;;;;;;;;;;;;5088921;28;1952;-75
2022/05/12 16:12:57;;;;;;;;;;;;;;;;;;5093484;28;1082;-74
2022/05/12 16:15:26;;;;;;;;;;;;;;;;;;5098167;28;1187;-74
2022/05/12 16:17:52;;;;;;;;;;;;;;;;;;5100272;28;1123;-73
2022/05/12 16:20:18;;;;;;;;;;;;;;;;;;5093705;28;1179;-74
2022/05/12 16:22:44;;;;;;;;;;;;;;;;;;5100618;28;1207;-74
2022/05/12 16:25:10;;;;;;;;;;;;;;;;;;5096140;28;1088;-74
2022/05/12 16:27:36;;;;;;;;;;;;;;;;;;5100122;28;1234;-75
2022/05/12 16:30:10;;;;;;;;;;;;;;;;;;5105791;28;1979;-75
2022/05/12 16:32:36;;;;;;;;;;;;;;;;;;5103561;28;1351;-74
2022/05/12 16:35:05;;;;;;;;;;;;;;;;;;5104792;28;1311;-73
2022/05/12 16:37:30;;;;;;;;;;;;;;;;;;5101588;28;1254;-74
2022/05/12 16:39:55;;;;;;;;;;;;;;;;;;5078624;28;1258;-74
2022/05/12 16:42:25;;;;;;;;;;;;;;;;;;5056405;28;1195;-74
2022/05/12 16:51:10;;;;;;;;;;;;;;;;;;5061958;22;1976;-75
2022/05/12 16:53:35;;;;;;;;;;;;;;;;;;5063801;28;1504;-74
2022/05/12 16:56:01;;;;;;;;;;;;;;;;;;5051778;28;1679;-72
2022/05/12 16:58:27;;;;;;;;;;;;;;;;;;5044378;28;1326;-73
2022/05/12 17:00:54;;;;;;;;;;;;;;;;;;5052041;28;1378;-74
2022/05/12 17:03:19;;;;;;;;;;;;;;;;;;5066575;28;1397;-73
2022/05/12 17:05:45;;;;;;;;;;;;;;;;;;5067918;28;1240;-74
2022/05/12 17:08:10;;;;;;;;;;;;;;;;;;5082251;28;1212;-73
2022/05/12 17:10:39;;;;;;;;;;;;;;;;;;5063722;28;1902;-73
2022/05/12 17:13:05;;;;;;;;;;;;;;;;;;5077535;28;1176;-73
2022/05/12 17:15:31;;;;;;;;;;;;;;;;;;5051694;28;1189;-75
2022/05/12 17:17:56;;;;;;;;;;;;;;;;;;5065654;28;1109;-74
2022/05/12 17:20:21;;;;;;;;;;;;;;;;;;5076995;28;1152;-75
2022/05/12 17:22:49;;;;;;;;;;;;;;;;;;5066855;28;1196;-76
2022/05/12 17:25:15;;;;;;;;;;;;;;;;;;5062735;28;1017;-73
2022/05/12 17:27:40;;;;;;;;;;;;;;;;;;5062777;28;1140;-74
2022/05/12 17:30:06;;;;;;;;;;;;;;;;;;5066373;28;1948;-74
2022/05/12 17:32:31;;;;;;;;;;;;;;;;;;5067193;28;1105;-74
2022/05/12 17:34:57;;;;;;;;;;;;;;;;;;5047296;28;1200;-74
2022/05/12 17:37:25;;;;;;;;;;;;;;;;;;5065560;28;1106;-74
2022/05/12 17:39:51;;;;;;;;;;;;;;;;;;5066113;28;1180;-74
2022/05/12 17:42:16;;;;;;;;;;;;;;;;;;5045443;28;1401;-74
2022/05/12 17:44:42;;;;;;;;;;;;;;;;;;5047466;28;1279;-76
2022/05/12 17:47:09;;;;;;;;;;;;;;;;;;5051382;28;1341;-74
2022/05/12 17:49:36;;;;;;;;;;;;;;;;;;5061934;28;1910;-74
2022/05/12 17:52:06;;;;;;;;;;;;;;;;;;5044738;28;1225;-76